sensor_id;sensor_type;location;lat;lon;timestamp;pressure;altitude;pressure_sealevel;temperature;humidity
10145;BME280;5113;41.822;23.564;2023-10-13T00:02:40;-11107.41;;;6.26;100.00
10145;BME280;5113;41.822;23.564;2023-10-13T00:05:47;-11101.22;;;6.04;100.00
10145;BME280;5113;41.822;23.564;2023-10-13T00:08:57;-11112.03;;;6.43;100.00
10145;BME280;5113;41.822;23.564;2023-10-13T00:12:07;-11101.50;;;6.05;100.00
10145;BME280;5113;41.822;23.564;2023-10-13T00:15:15;-11091.38;;;5.68;100.00
10145;BME280;5113;41.822;23.564;2023-10-13T00:18:32;-11097.41;;;5.90;100.00
10145;BME280;5113;41.822;23.564;2023-10-13T00:21:39;-11093.63;;;5.76;100.00
10145;BME280;5113;41.822;23.564;2023-10-13T00:24:47;-11113.56;;;6.48;100.00
10145;BME280;5113;41.822;23.564;2023-10-13T00:27:57;-11112.31;;;6.44;100.00
10145;BME280;5113;41.822;23.564;2023-10-13T00:31:06;-11093.34;;;5.75;100.00
10145;BME280;5113;41.822;23.564;2023-10-13T00:34:17;-11087.44;;;5.54;100.00
10145;BME280;5113;41.822;23.564;2023-10-13T00:37:30;-11090.25;;;5.64;100.00
10145;BME280;5113;41.822;23.564;2023-10-13T00:40:46;-11090.69;;;5.66;100.00
10145;BME280;5113;41.822;23.564;2023-10-13T00:44:00;-11103.75;;;6.13;100.00
10145;BME280;5113;41.822;23.564;2023-10-13T00:47:13;-11099.53;;;5.97;100.00
10145;BME280;5113;41.822;23.564;2023-10-13T00:50:37;-11095.03;;;5.81;100.00
10145;BME280;5113;41.822;23.564;2023-10-13T00:53:43;-11082.69;;;5.37;100.00
10145;BME280;5113;41.822;23.564;2023-10-13T00:56:52;-11109.22;;;6.33;100.00
10145;BME280;5113;41.822;23.564;2023-10-13T01:00:14;-11111.59;;;6.41;100.00
10145;BME280;5113;41.822;23.564;2023-10-13T01:03:24;-11105.00;;;6.17;100.00
10145;BME280;5113;41.822;23.564;2023-10-13T01:06:31;-11087.72;;;5.55;100.00
10145;BME280;5113;41.822;23.564;2023-10-13T01:09:40;-11094.47;;;5.79;100.00
10145;BME280;5113;41.822;23.564;2023-10-13T01:12:48;-11111.59;;;6.41;100.00
10145;BME280;5113;41.822;23.564;2023-10-13T01:15:59;-11098.81;;;5.95;100.00
10145;BME280;5113;41.822;23.564;2023-10-13T01:19:06;-11093.22;;;5.75;100.00
10145;BME280;5113;41.822;23.564;2023-10-13T01:22:12;-11111.19;;;6.40;100.00
10145;BME280;5113;41.822;23.564;2023-10-13T01:25:20;-11085.63;;;5.47;100.00
10145;BME280;5113;41.822;23.564;2023-10-13T01:28:30;-11093.34;;;5.75;100.00
10145;BME280;5113;41.822;23.564;2023-10-13T01:31:48;-11071.31;;;4.95;100.00
10145;BME280;5113;41.822;23.564;2023-10-13T01:34:55;-11094.47;;;5.79;100.00
10145;BME280;5113;41.822;23.564;2023-10-13T01:38:03;-11081.84;;;5.34;100.00
10145;BME280;5113;41.822;23.564;2023-10-13T01:41:11;-11101.78;;;6.06;100.00
10145;BME280;5113;41.822;23.564;2023-10-13T01:44:17;-11078.75;;;5.22;100.00
10145;BME280;5113;41.822;23.564;2023-10-13T01:47:24;-11070.19;;;4.91;100.00
10145;BME280;5113;41.822;23.564;2023-10-13T01:50:36;-11088.16;;;5.56;100.00
10145;BME280;5113;41.822;23.564;2023-10-13T01:53:43;-11082.13;;;5.35;100.00
10145;BME280;5113;41.822;23.564;2023-10-13T01:57:00;-11074.53;;;5.07;100.00
10145;BME280;5113;41.822;23.564;2023-10-13T02:00:09;-11074.53;;;5.07;100.00
10145;BME280;5113;41.822;23.564;2023-10-13T02:03:23;-11063.03;;;4.65;100.00
10145;BME280;5113;41.822;23.564;2023-10-13T02:06:35;-11058.69;;;4.50;100.00
10145;BME280;5113;41.822;23.564;2023-10-13T02:09:42;-11083.22;;;5.39;100.00
10145;BME280;5113;41.822;23.564;2023-10-13T02:12:49;-11087.16;;;5.53;100.00
10145;BME280;5113;41.822;23.564;2023-10-13T02:16:00;-11069.75;;;4.90;100.00
10145;BME280;5113;41.822;23.564;2023-10-13T02:19:09;-11076.22;;;5.13;100.00
10145;BME280;5113;41.822;23.564;2023-10-13T02:22:21;-11081.69;;;5.33;100.00
10145;BME280;5113;41.822;23.564;2023-10-13T02:25:37;-11094.03;;;5.78;100.00
10145;BME280;5113;41.822;23.564;2023-10-13T02:28:52;-11086.03;;;5.49;100.00
10145;BME280;5113;41.822;23.564;2023-10-13T02:32:02;-11101.63;;;6.05;100.00
10145;BME280;5113;41.822;23.564;2023-10-13T02:35:10;-11076.50;;;5.14;100.00
10145;BME280;5113;41.822;23.564;2023-10-13T02:38:21;-11055.72;;;4.39;100.00
10145;BME280;5113;41.822;23.564;2023-10-13T02:41:38;-11048.28;;;4.12;100.00
10145;BME280;5113;41.822;23.564;2023-10-13T02:44:45;-11066.25;;;4.77;100.00
10145;BME280;5113;41.822;23.564;2023-10-13T02:47:52;-11078.47;;;5.21;100.00
10145;BME280;5113;41.822;23.564;2023-10-13T02:51:15;-11070.31;;;4.92;100.00
10145;BME280;5113;41.822;23.564;2023-10-13T02:54:22;-11050.69;;;4.21;100.00
10145;BME280;5113;41.822;23.564;2023-10-13T02:57:35;-11056.44;;;4.42;100.00
10145;BME280;5113;41.822;23.564;2023-10-13T03:00:42;-11051.94;;;4.25;100.00
10145;BME280;5113;41.822;23.564;2023-10-13T03:03:50;-11052.63;;;4.28;100.00
10145;BME280;5113;41.822;23.564;2023-10-13T03:06:59;-11053.91;;;4.32;100.00
10145;BME280;5113;41.822;23.564;2023-10-13T03:10:05;-11059.09;;;4.51;100.00
10145;BME280;5113;41.822;23.564;2023-10-13T03:13:15;-11075.66;;;5.11;100.00
10145;BME280;5113;41.822;23.564;2023-10-13T03:16:22;-11060.78;;;4.57;100.00
10145;BME280;5113;41.822;23.564;2023-10-13T03:19:29;-11084.91;;;5.45;100.00
10145;BME280;5113;41.822;23.564;2023-10-13T03:22:38;-11093.22;;;5.75;100.00
10145;BME280;5113;41.822;23.564;2023-10-13T03:25:44;-11087.88;;;5.55;100.00
10145;BME280;5113;41.822;23.564;2023-10-13T03:28:55;-11059.81;;;4.54;100.00
10145;BME280;5113;41.822;23.564;2023-10-13T03:32:04;-11052.06;;;4.26;100.00
10145;BME280;5113;41.822;23.564;2023-10-13T03:35:16;-11045.34;;;4.02;100.00
10145;BME280;5113;41.822;23.564;2023-10-13T03:38:29;-11059.09;;;4.51;100.00
10145;BME280;5113;41.822;23.564;2023-10-13T03:41:41;-11077.47;;;5.18;100.00
10145;BME280;5113;41.822;23.564;2023-10-13T03:44:50;-11051.50;;;4.24;100.00
10145;BME280;5113;41.822;23.564;2023-10-13T03:48:01;-11058.53;;;4.49;100.00
10145;BME280;5113;41.822;23.564;2023-10-13T03:51:14;-11050.41;;;4.20;100.00
10145;BME280;5113;41.822;23.564;2023-10-13T03:54:20;-11059.66;;;4.53;100.00
10145;BME280;5113;41.822;23.564;2023-10-13T03:57:27;-11078.59;;;5.22;100.00
10145;BME280;5113;41.822;23.564;2023-10-13T04:00:34;-11064.72;;;4.72;100.00
10145;BME280;5113;41.822;23.564;2023-10-13T04:03:43;-11077.47;;;5.18;100.00
10145;BME280;5113;41.822;23.564;2023-10-13T04:07:02;-11050.97;;;4.22;100.00
10145;BME280;5113;41.822;23.564;2023-10-13T04:10:39;-11051.09;;;4.22;100.00
10145;BME280;5113;41.822;23.564;2023-10-13T04:14:08;-11045.63;;;4.03;100.00
10145;BME280;5113;41.822;23.564;2023-10-13T04:17:28;-11037.91;;;3.75;100.00
10145;BME280;5113;41.822;23.564;2023-10-13T04:20:40;-11039.88;;;3.82;100.00
10145;BME280;5113;41.822;23.564;2023-10-13T04:23:51;-11044.78;;;4.00;100.00
10145;BME280;5113;41.822;23.564;2023-10-13T04:27:14;-11065.56;;;4.75;100.00
10145;BME280;5113;41.822;23.564;2023-10-13T04:30:46;-11053.47;;;4.31;100.00
10145;BME280;5113;41.822;23.564;2023-10-13T04:34:04;-11066.66;;;4.79;100.00
10145;BME280;5113;41.822;23.564;2023-10-13T04:37:20;-11053.47;;;4.31;100.00
10145;BME280;5113;41.822;23.564;2023-10-13T04:40:34;-11048.16;;;4.12;100.00
10145;BME280;5113;41.822;23.564;2023-10-13T04:44:04;-11047.88;;;4.11;100.00
10145;BME280;5113;41.822;23.564;2023-10-13T04:47:28;-11042.97;;;3.93;100.00
10145;BME280;5113;41.822;23.564;2023-10-13T04:50:47;-11053.06;;;4.29;100.00
10145;BME280;5113;41.822;23.564;2023-10-13T04:53:57;-11068.22;;;4.84;100.00
10145;BME280;5113;41.822;23.564;2023-10-13T04:57:07;-11080.44;;;5.28;100.00
10145;BME280;5113;41.822;23.564;2023-10-13T05:00:36;-11092.22;;;5.71;100.00
10145;BME280;5113;41.822;23.564;2023-10-13T05:04:21;-11082.69;;;5.37;100.00
10145;BME280;5113;41.822;23.564;2023-10-13T05:07:43;-11069.06;;;4.87;100.00
10145;BME280;5113;41.822;23.564;2023-10-13T05:11:08;-11065.56;;;4.75;100.00
10145;BME280;5113;41.822;23.564;2023-10-13T05:14:31;-11063.31;;;4.67;100.00
10145;BME280;5113;41.822;23.564;2023-10-13T05:17:55;-11080.84;;;5.30;100.00
10145;BME280;5113;41.822;23.564;2023-10-13T05:21:22;-11091.53;;;5.69;100.00
10145;BME280;5113;41.822;23.564;2023-10-13T05:24:45;-11083.09;;;5.38;100.00
10145;BME280;5113;41.822;23.564;2023-10-13T05:28:10;-11097.13;;;5.89;100.00
10145;BME280;5113;41.822;23.564;2023-10-13T05:31:39;-11079.16;;;5.24;100.00
10145;BME280;5113;41.822;23.564;2023-10-13T05:35:04;-11091.09;;;5.67;100.00
10145;BME280;5113;41.822;23.564;2023-10-13T05:38:28;-11107.97;;;6.28;100.00
10145;BME280;5113;41.822;23.564;2023-10-13T05:42:00;-11120.88;;;6.75;100.00
10145;BME280;5113;41.822;23.564;2023-10-13T05:45:25;-11130.13;;;7.08;100.00
10145;BME280;5113;41.822;23.564;2023-10-13T05:49:04;-11139.69;;;7.43;100.00
10145;BME280;5113;41.822;23.564;2023-10-13T05:52:31;-11146.44;;;7.67;100.00
10145;BME280;5113;41.822;23.564;2023-10-13T05:56:01;-11151.91;;;7.87;100.00
10145;BME280;5113;41.822;23.564;2023-10-13T05:59:25;-11147.00;;;7.69;100.00
10145;BME280;5113;41.822;23.564;2023-10-13T06:02:50;-11142.22;;;7.52;100.00
10145;BME280;5113;41.822;23.564;2023-10-13T06:06:22;-11177.06;;;8.78;100.00
10145;BME280;5113;41.822;23.564;2023-10-13T06:09:46;-11179.75;;;8.87;100.00
10145;BME280;5113;41.822;23.564;2023-10-13T06:13:11;-11185.09;;;9.07;100.00
10145;BME280;5113;41.822;23.564;2023-10-13T06:16:35;-11197.59;;;9.52;100.00
10145;BME280;5113;41.822;23.564;2023-10-13T06:20:00;-11200.00;;;9.60;100.00
10145;BME280;5113;41.822;23.564;2023-10-13T06:23:23;-11201.81;;;9.67;100.00
10145;BME280;5113;41.822;23.564;2023-10-13T06:26:47;-11213.06;;;10.08;100.00
10145;BME280;5113;41.822;23.564;2023-10-13T06:30:11;-11207.88;;;9.89;100.00
10145;BME280;5113;41.822;23.564;2023-10-13T06:33:18;-11216.16;;;10.19;100.00
10145;BME280;5113;41.822;23.564;2023-10-13T06:36:28;-11229.94;;;10.69;100.00
10145;BME280;5113;41.822;23.564;2023-10-13T06:39:35;-11227.13;;;10.58;100.00
10145;BME280;5113;41.822;23.564;2023-10-13T06:42:41;-11246.69;;;11.29;100.00
10145;BME280;5113;41.822;23.564;2023-10-13T06:45:49;-11245.16;;;11.23;100.00
10145;BME280;5113;41.822;23.564;2023-10-13T06:49:06;-11256.41;;;11.64;100.00
10145;BME280;5113;41.822;23.564;2023-10-13T06:52:15;-11251.06;;;11.45;100.00
10145;BME280;5113;41.822;23.564;2023-10-13T06:55:22;-11257.81;;;11.69;100.00
10145;BME280;5113;41.822;23.564;2023-10-13T06:58:32;-11266.25;;;12.00;100.00
10145;BME280;5113;41.822;23.564;2023-10-13T07:01:38;-11267.66;;;12.05;99.55
10145;BME280;5113;41.822;23.564;2023-10-13T07:04:46;-11275.81;;;12.34;95.82
10145;BME280;5113;41.822;23.564;2023-10-13T07:07:53;-11274.69;;;12.30;96.87
10145;BME280;5113;41.822;23.564;2023-10-13T07:11:03;-11281.16;;;12.53;95.32
10145;BME280;5113;41.822;23.564;2023-10-13T07:14:13;-11280.31;;;12.50;94.53
10145;BME280;5113;41.822;23.564;2023-10-13T07:17:24;-11293.00;;;12.96;90.03
10145;BME280;5113;41.822;23.564;2023-10-13T07:20:32;-11295.38;;;13.05;88.69
10145;BME280;5113;41.822;23.564;2023-10-13T07:23:41;-11314.53;;;13.74;87.02
10145;BME280;5113;41.822;23.564;2023-10-13T07:26:54;-11300.59;;;13.24;88.71
10145;BME280;5113;41.822;23.564;2023-10-13T07:30:09;-11303.41;;;13.34;89.61
10145;BME280;5113;41.822;23.564;2023-10-13T07:33:20;-11321.16;;;13.98;87.08
10145;BME280;5113;41.822;23.564;2023-10-13T07:36:27;-11339.47;;;14.64;83.29
10145;BME280;5113;41.822;23.564;2023-10-13T07:39:39;-11346.50;;;14.89;82.47
10145;BME280;5113;41.822;23.564;2023-10-13T07:42:48;-11352.69;;;15.11;82.38
10145;BME280;5113;41.822;23.564;2023-10-13T07:45:55;-11348.47;;;14.96;81.10
10145;BME280;5113;41.822;23.564;2023-10-13T07:49:04;-11351.84;;;15.08;79.57
10145;BME280;5113;41.822;23.564;2023-10-13T07:52:16;-11359.75;;;15.37;78.84
10145;BME280;5113;41.822;23.564;2023-10-13T07:55:42;-11351.00;;;15.05;77.62
10145;BME280;5113;41.822;23.564;2023-10-13T07:58:50;-11376.94;;;15.99;74.99
10145;BME280;5113;41.822;23.564;2023-10-13T08:02:09;-11381.16;;;16.14;71.01
10145;BME280;5113;41.822;23.564;2023-10-13T08:05:21;-11357.63;;;15.29;72.33
10145;BME280;5113;41.822;23.564;2023-10-13T08:08:45;-11398.06;;;16.75;65.41
10145;BME280;5113;41.822;23.564;2023-10-13T08:11:57;-11380.31;;;16.11;64.59
10145;BME280;5113;41.822;23.564;2023-10-13T08:15:04;-11399.91;;;16.81;63.00
10145;BME280;5113;41.822;23.564;2023-10-13T08:18:26;-11411.59;;;17.24;62.34
10145;BME280;5113;41.822;23.564;2023-10-13T08:21:36;-11417.50;;;17.45;60.65
10145;BME280;5113;41.822;23.564;2023-10-13T08:24:42;-11415.97;;;17.39;60.36
10145;BME280;5113;41.822;23.564;2023-10-13T08:28:05;-11413.28;;;17.30;60.71
10145;BME280;5113;41.822;23.564;2023-10-13T08:31:38;-11407.09;;;17.07;55.63
10145;BME280;5113;41.822;23.564;2023-10-13T08:34:47;-11413.00;;;17.29;55.81
10145;BME280;5113;41.822;23.564;2023-10-13T08:38:15;-11427.38;;;17.80;54.42
10145;BME280;5113;41.822;23.564;2023-10-13T08:41:35;-11447.13;;;18.52;52.97
10145;BME280;5113;41.822;23.564;2023-10-13T08:45:01;-11449.66;;;18.61;52.01
10145;BME280;5113;41.822;23.564;2023-10-13T08:48:27;-11463.34;;;19.10;51.33
10145;BME280;5113;41.822;23.564;2023-10-13T08:51:40;-11479.28;;;19.67;49.37
10145;BME280;5113;41.822;23.564;2023-10-13T08:54:54;-11465.72;;;19.19;50.10
10145;BME280;5113;41.822;23.564;2023-10-13T08:58:41;-11480.13;;;19.70;50.66
10145;BME280;5113;41.822;23.564;2023-10-13T09:02:13;-11479.00;;;19.66;49.90
10145;BME280;5113;41.822;23.564;2023-10-13T09:05:25;-11471.37;;;19.39;51.21
10145;BME280;5113;41.822;23.564;2023-10-13T09:08:47;-11491.97;;;20.13;49.88
10145;BME280;5113;41.822;23.564;2023-10-13T09:12:11;-11498.75;;;20.37;49.67
10145;BME280;5113;41.822;23.564;2023-10-13T09:15:29;-11507.34;;;20.68;49.20
10145;BME280;5113;41.822;23.564;2023-10-13T09:19:03;-11519.75;;;21.13;47.34
10145;BME280;5113;41.822;23.564;2023-10-13T09:22:19;-11502.69;;;20.52;48.47
10145;BME280;5113;41.822;23.564;2023-10-13T09:25:34;-11494.22;;;20.21;48.96
10145;BME280;5113;41.822;23.564;2023-10-13T09:28:41;-11511.72;;;20.84;47.79
10145;BME280;5113;41.822;23.564;2023-10-13T09:32:00;-11516.22;;;21.00;47.52
10145;BME280;5113;41.822;23.564;2023-10-13T09:35:11;-11524.97;;;21.32;47.69
10145;BME280;5113;41.822;23.564;2023-10-13T09:38:23;-11535.97;;;21.71;46.21
10145;BME280;5113;41.822;23.564;2023-10-13T09:41:30;-11545.31;;;22.05;45.64
10145;BME280;5113;41.822;23.564;2023-10-13T09:44:37;-11540.94;;;21.89;45.01
10145;BME280;5113;41.822;23.564;2023-10-13T09:47:47;-11556.72;;;22.46;44.25
10145;BME280;5113;41.822;23.564;2023-10-13T09:51:00;-11549.53;;;22.20;44.66
10145;BME280;5113;41.822;23.564;2023-10-13T09:54:10;-11547.69;;;22.14;44.25
10145;BME280;5113;41.822;23.564;2023-10-13T09:57:42;-11560.53;;;22.60;43.64
10145;BME280;5113;41.822;23.564;2023-10-13T10:00:52;-11559.69;;;22.57;42.98
10145;BME280;5113;41.822;23.564;2023-10-13T10:04:14;-11557.28;;;22.48;43.74
10145;BME280;5113;41.822;23.564;2023-10-13T10:07:28;-11555.59;;;22.42;43.97
10145;BME280;5113;41.822;23.564;2023-10-13T10:10:50;-11564.22;;;22.73;44.53
10145;BME280;5113;41.822;23.564;2023-10-13T10:14:06;-11573.81;;;23.08;44.14
10145;BME280;5113;41.822;23.564;2023-10-13T10:17:14;-11578.59;;;23.25;42.99
10145;BME280;5113;41.822;23.564;2023-10-13T10:20:28;-11595.69;;;23.86;43.04
10145;BME280;5113;41.822;23.564;2023-10-13T10:23:52;-11606.56;;;24.25;42.41
10145;BME280;5113;41.822;23.564;2023-10-13T10:26:59;-11595.81;;;23.87;42.02
10145;BME280;5113;41.822;23.564;2023-10-13T10:30:10;-11588.63;;;23.61;41.26
10145;BME280;5113;41.822;23.564;2023-10-13T10:33:18;-11598.09;;;23.95;40.06
10145;BME280;5113;41.822;23.564;2023-10-13T10:36:29;-11600.06;;;24.02;38.29
10145;BME280;5113;41.822;23.564;2023-10-13T10:39:38;-11600.63;;;24.04;36.91
10145;BME280;5113;41.822;23.564;2023-10-13T10:42:52;-11608.09;;;24.31;36.77
10145;BME280;5113;41.822;23.564;2023-10-13T10:45:59;-11608.66;;;24.33;36.51
10145;BME280;5113;41.822;23.564;2023-10-13T10:49:06;-11627.72;;;25.01;35.78
10145;BME280;5113;41.822;23.564;2023-10-13T10:52:17;-11608.09;;;24.31;33.12
10145;BME280;5113;41.822;23.564;2023-10-13T10:55:28;-11612.47;;;24.47;33.88
10145;BME280;5113;41.822;23.564;2023-10-13T10:58:35;-11617.44;;;24.64;34.00
10145;BME280;5113;41.822;23.564;2023-10-13T11:01:49;-11636.78;;;25.34;35.77
10145;BME280;5113;41.822;23.564;2023-10-13T11:04:57;-11638.19;;;25.39;34.82
10145;BME280;5113;41.822;23.564;2023-10-13T11:08:04;-11654.56;;;25.98;33.67
10145;BME280;5113;41.822;23.564;2023-10-13T11:11:30;-11641.13;;;25.50;33.44
10145;BME280;5113;41.822;23.564;2023-10-13T11:14:41;-11639.59;;;25.44;33.67
10145;BME280;5113;41.822;23.564;2023-10-13T11:17:49;-11643.81;;;25.59;35.44
10145;BME280;5113;41.822;23.564;2023-10-13T11:21:01;-11617.56;;;24.65;38.95
10145;BME280;5113;41.822;23.564;2023-10-13T11:24:12;-11637.91;;;25.38;33.96
10145;BME280;5113;41.822;23.564;2023-10-13T11:27:20;-11645.09;;;25.64;34.14
10145;BME280;5113;41.822;23.564;2023-10-13T11:30:48;-11654.28;;;25.97;33.04
10145;BME280;5113;41.822;23.564;2023-10-13T11:33:56;-11657.53;;;26.09;34.09
10145;BME280;5113;41.822;23.564;2023-10-13T11:37:07;-11648.63;;;25.77;32.19
10145;BME280;5113;41.822;23.564;2023-10-13T11:40:31;-11678.44;;;26.84;32.46
10145;BME280;5113;41.822;23.564;2023-10-13T11:44:12;-11654.28;;;25.97;32.59
10145;BME280;5113;41.822;23.564;2023-10-13T11:47:28;-11667.56;;;26.45;33.53
10145;BME280;5113;41.822;23.564;2023-10-13T11:50:53;-11673.63;;;26.67;32.51
10145;BME280;5113;41.822;23.564;2023-10-13T11:54:00;-11674.19;;;26.69;32.41
10145;BME280;5113;41.822;23.564;2023-10-13T11:57:08;-11700.19;;;27.62;31.94
10145;BME280;5113;41.822;23.564;2023-10-13T12:00:17;-11689.31;;;27.23;31.90
10145;BME280;5113;41.822;23.564;2023-10-13T12:03:50;-11685.50;;;27.09;32.40
10145;BME280;5113;41.822;23.564;2023-10-13T12:07:15;-11671.38;;;26.58;31.64
10145;BME280;5113;41.822;23.564;2023-10-13T12:10:26;-11683.66;;;27.03;31.34
10145;BME280;5113;41.822;23.564;2023-10-13T12:13:54;-11667.41;;;26.44;31.91
10145;BME280;5113;41.822;23.564;2023-10-13T12:17:02;-11674.03;;;26.68;32.14
10145;BME280;5113;41.822;23.564;2023-10-13T12:20:15;-11635.63;;;25.30;33.00
10145;BME280;5113;41.822;23.564;2023-10-13T12:23:38;-11673.91;;;26.68;32.30
10145;BME280;5113;41.822;23.564;2023-10-13T12:26:44;-11655.41;;;26.01;32.79
10145;BME280;5113;41.822;23.564;2023-10-13T12:29:52;-11606.69;;;24.26;38.30
10145;BME280;5113;41.822;23.564;2023-10-13T12:33:04;-11615.44;;;24.57;35.62
10145;BME280;5113;41.822;23.564;2023-10-13T12:36:14;-11634.78;;;25.27;35.55
10145;BME280;5113;41.822;23.564;2023-10-13T12:39:36;-11649.47;;;25.80;34.51
10145;BME280;5113;41.822;23.564;2023-10-13T12:43:01;-11662.31;;;26.26;33.21
10145;BME280;5113;41.822;23.564;2023-10-13T12:46:26;-11664.16;;;26.33;32.65
10145;BME280;5113;41.822;23.564;2023-10-13T12:49:51;-11673.47;;;26.66;32.25
10145;BME280;5113;41.822;23.564;2023-10-13T12:53:03;-11647.78;;;25.74;33.00
10145;BME280;5113;41.822;23.564;2023-10-13T12:56:09;-11655.97;;;26.03;32.88
10145;BME280;5113;41.822;23.564;2023-10-13T12:59:17;-11674.91;;;26.71;32.77
10145;BME280;5113;41.822;23.564;2023-10-13T13:02:24;-11672.91;;;26.64;32.08
10145;BME280;5113;41.822;23.564;2023-10-13T13:05:33;-11666.16;;;26.40;33.22
10145;BME280;5113;41.822;23.564;2023-10-13T13:08:50;-11658.38;;;26.12;33.40
10145;BME280;5113;41.822;23.564;2023-10-13T13:11:57;-11665.00;;;26.36;33.36
10145;BME280;5113;41.822;23.564;2023-10-13T13:15:05;-11641.28;;;25.50;33.08
10145;BME280;5113;41.822;23.564;2023-10-13T13:18:13;-11659.34;;;26.15;32.40
10145;BME280;5113;41.822;23.564;2023-10-13T13:21:21;-11656.25;;;26.04;31.79
10145;BME280;5113;41.822;23.564;2023-10-13T13:24:29;-11664.88;;;26.35;31.10
10145;BME280;5113;41.822;23.564;2023-10-13T13:27:36;-11673.63;;;26.67;31.10
10145;BME280;5113;41.822;23.564;2023-10-13T13:30:49;-11674.47;;;26.70;31.84
10145;BME280;5113;41.822;23.564;2023-10-13T13:33:58;-11662.75;;;26.27;30.72
10145;BME280;5113;41.822;23.564;2023-10-13T13:37:06;-11655.25;;;26.00;30.95
10145;BME280;5113;41.822;23.564;2023-10-13T13:40:13;-11637.63;;;25.37;31.33
10145;BME280;5113;41.822;23.564;2023-10-13T13:43:21;-11638.47;;;25.40;32.50
10145;BME280;5113;41.822;23.564;2023-10-13T13:46:50;-11637.34;;;25.36;34.18
10145;BME280;5113;41.822;23.564;2023-10-13T13:49:58;-11652.31;;;25.90;33.79
10145;BME280;5113;41.822;23.564;2023-10-13T13:53:12;-11652.44;;;25.90;33.17
10145;BME280;5113;41.822;23.564;2023-10-13T13:56:19;-11648.91;;;25.78;33.73
10145;BME280;5113;41.822;23.564;2023-10-13T13:59:26;-11657.81;;;26.10;33.75
10145;BME280;5113;41.822;23.564;2023-10-13T14:02:39;-11659.22;;;26.15;34.48
10145;BME280;5113;41.822;23.564;2023-10-13T14:05:52;-11628.44;;;25.04;36.46
10145;BME280;5113;41.822;23.564;2023-10-13T14:09:00;-11627.16;;;24.99;36.56
10145;BME280;5113;41.822;23.564;2023-10-13T14:12:19;-11648.91;;;25.78;36.06
10145;BME280;5113;41.822;23.564;2023-10-13T14:15:47;-11667.84;;;26.46;35.02
10145;BME280;5113;41.822;23.564;2023-10-13T14:18:54;-11655.25;;;26.00;35.28
10145;BME280;5113;41.822;23.564;2023-10-13T14:22:01;-11630.41;;;25.11;36.34
10145;BME280;5113;41.822;23.564;2023-10-13T14:25:13;-11637.06;;;25.35;35.78
10145;BME280;5113;41.822;23.564;2023-10-13T14:28:20;-11645.81;;;25.66;35.79
10145;BME280;5113;41.822;23.564;2023-10-13T14:31:27;-11618.69;;;24.69;36.71
10145;BME280;5113;41.822;23.564;2023-10-13T14:34:33;-11618.69;;;24.69;36.17
10145;BME280;5113;41.822;23.564;2023-10-13T14:37:41;-11646.09;;;25.67;35.55
10145;BME280;5113;41.822;23.564;2023-10-13T14:40:56;-11658.22;;;26.11;34.90
10145;BME280;5113;41.822;23.564;2023-10-13T14:44:03;-11648.34;;;25.76;35.04
10145;BME280;5113;41.822;23.564;2023-10-13T14:47:12;-11637.06;;;25.35;35.67
10145;BME280;5113;41.822;23.564;2023-10-13T14:50:18;-11643.81;;;25.59;35.97
10145;BME280;5113;41.822;23.564;2023-10-13T14:53:26;-11629.28;;;25.07;36.51
10145;BME280;5113;41.822;23.564;2023-10-13T14:56:35;-11589.91;;;23.65;38.13
10145;BME280;5113;41.822;23.564;2023-10-13T14:59:41;-11556.16;;;22.44;40.57
10145;BME280;5113;41.822;23.564;2023-10-13T15:02:48;-11552.91;;;22.32;40.80
10145;BME280;5113;41.822;23.564;2023-10-13T15:05:55;-11539.78;;;21.85;41.50
10145;BME280;5113;41.822;23.564;2023-10-13T15:09:03;-11534.00;;;21.64;43.08
10145;BME280;5113;41.822;23.564;2023-10-13T15:12:17;-11523.72;;;21.27;43.79
10145;BME280;5113;41.822;23.564;2023-10-13T15:15:30;-11500.28;;;20.43;49.43
10145;BME280;5113;41.822;23.564;2023-10-13T15:18:37;-11494.09;;;20.21;51.56
10145;BME280;5113;41.822;23.564;2023-10-13T15:21:45;-11503.53;;;20.55;49.64
10145;BME280;5113;41.822;23.564;2023-10-13T15:24:56;-11493.09;;;20.17;50.55
10145;BME280;5113;41.822;23.564;2023-10-13T15:28:16;-11478.00;;;19.63;53.62
10145;BME280;5113;41.822;23.564;2023-10-13T15:31:26;-11487.03;;;19.95;50.45
10145;BME280;5113;41.822;23.564;2023-10-13T15:34:42;-11485.75;;;19.91;50.17
10145;BME280;5113;41.822;23.564;2023-10-13T15:37:51;-11481.97;;;19.77;50.04
10145;BME280;5113;41.822;23.564;2023-10-13T15:40:58;-11452.75;;;18.72;55.47
10145;BME280;5113;41.822;23.564;2023-10-13T15:44:12;-11471.37;;;19.39;52.11
10145;BME280;5113;41.822;23.564;2023-10-13T15:47:20;-11474.75;;;19.51;51.61
10145;BME280;5113;41.822;23.564;2023-10-13T15:50:46;-11443.47;;;18.38;56.26
10145;BME280;5113;41.822;23.564;2023-10-13T15:53:55;-11457.69;;;18.90;53.54
10145;BME280;5113;41.822;23.564;2023-10-13T15:57:05;-11454.19;;;18.77;53.99
10145;BME280;5113;41.822;23.564;2023-10-13T16:00:14;-11447.25;;;18.52;54.68
10145;BME280;5113;41.822;23.564;2023-10-13T16:03:31;-11421.47;;;17.59;59.81
10145;BME280;5113;41.822;23.564;2023-10-13T16:06:38;-11415.41;;;17.37;64.30
10145;BME280;5113;41.822;23.564;2023-10-13T16:09:45;-11415.97;;;17.39;64.16
10145;BME280;5113;41.822;23.564;2023-10-13T16:13:06;-11402.44;;;16.91;67.10
10145;BME280;5113;41.822;23.564;2023-10-13T16:16:23;-11389.91;;;16.45;72.43
10145;BME280;5113;41.822;23.564;2023-10-13T16:19:30;-11389.03;;;16.42;75.15
10145;BME280;5113;41.822;23.564;2023-10-13T16:22:37;-11385.94;;;16.31;76.45
10145;BME280;5113;41.822;23.564;2023-10-13T16:25:44;-11375.94;;;15.95;80.69
10145;BME280;5113;41.822;23.564;2023-10-13T16:28:51;-11378.91;;;16.06;79.65
10145;BME280;5113;41.822;23.564;2023-10-13T16:32:00;-11371.16;;;15.78;80.17
10145;BME280;5113;41.822;23.564;2023-10-13T16:35:10;-11361.72;;;15.44;79.64
10145;BME280;5113;41.822;23.564;2023-10-13T16:38:18;-11365.38;;;15.57;79.37
10145;BME280;5113;41.822;23.564;2023-10-13T16:41:25;-11356.94;;;15.27;80.94
10145;BME280;5113;41.822;23.564;2023-10-13T16:44:33;-11350.72;;;15.04;80.77
10145;BME280;5113;41.822;23.564;2023-10-13T16:47:46;-11351.84;;;15.08;82.01
10145;BME280;5113;41.822;23.564;2023-10-13T16:50:52;-11346.78;;;14.90;83.96
10145;BME280;5113;41.822;23.564;2023-10-13T16:54:02;-11355.38;;;15.21;78.88